Time;durP1;ratioP1;P1;durP2;ratioP2;P2;SDS_P1;SDS_P2;PMS_P1;PMS_P2;Temp;Humidity;BMP_temperature;BMP_pressure;BME280_temperature;BME280_humidity;BME280_pressure;Samples;Min_cycle;Max_cycle;Signal;HPM_P1;HPM_P2
2023/07/04 00:01:07;;;;;;;2.47;2.00;;;;;;;;;;5079498;28;20318;-67
2023/07/04 00:03:35;;;;;;;2.58;2.38;;;;;;;;;;5079985;28;20706;-67
2023/07/04 00:06:02;;;;;;;2.40;2.00;;;;;;;;;;5079959;28;20204;-67
2023/07/04 00:08:33;;;;;;;3.17;2.50;;;;;;;;;;5080150;28;20314;-67
2023/07/04 00:11:02;;;;;;;2.78;2.17;;;;;;;;;;5079882;28;20709;-67
2023/07/04 00:13:30;;;;;;;2.75;2.38;;;;;;;;;;5079825;28;20250;-67
2023/07/04 00:15:59;;;;;;;2.70;2.45;;;;;;;;;;5080605;28;20239;-66
2023/07/04 00:18:28;;;;;;;3.72;2.33;;;;;;;;;;5079728;28;20204;-66
2023/07/04 00:20:56;;;;;;;2.50;2.30;;;;;;;;;;5080094;28;20231;-66
2023/07/04 00:23:25;;;;;;;3.47;2.20;;;;;;;;;;5079815;28;20204;-66
2023/07/04 00:25:52;;;;;;;2.75;1.98;;;;;;;;;;5080074;28;20215;-66
2023/07/04 00:28:21;;;;;;;2.83;2.22;;;;;;;;;;5080211;28;20204;-66
2023/07/04 00:30:52;;;;;;;2.67;2.20;;;;;;;;;;5080151;28;20494;-66
2023/07/04 00:33:21;;;;;;;3.55;2.25;;;;;;;;;;5080139;28;20606;-67
2023/07/04 00:35:49;;;;;;;3.20;2.22;;;;;;;;;;5079802;28;20212;-66
2023/07/04 00:38:19;;;;;;;2.95;1.98;;;;;;;;;;5079575;28;20240;-66
2023/07/04 00:40:50;;;;;;;2.50;2.03;;;;;;;;;;5079669;28;20232;-66
2023/07/04 00:43:18;;;;;;;4.22;2.40;;;;;;;;;;5079933;28;20231;-66
2023/07/04 00:45:52;;;;;;;2.80;2.30;;;;;;;;;;5079511;28;20196;-66
2023/07/04 00:48:21;;;;;;;2.83;2.40;;;;;;;;;;5079592;28;20213;-67
2023/07/04 00:50:49;;;;;;;2.97;2.40;;;;;;;;;;5079643;28;20212;-67
2023/07/04 00:53:18;;;;;;;2.53;2.25;;;;;;;;;;5079535;28;20564;-67
2023/07/04 00:55:47;;;;;;;2.40;2.20;;;;;;;;;;5079643;28;20619;-67
2023/07/04 00:58:15;;;;;;;2.92;2.13;;;;;;;;;;5079530;28;20235;-66
2023/07/04 01:00:43;;;;;;;2.58;2.22;;;;;;;;;;5079440;28;20227;-66
2023/07/04 01:03:12;;;;;;;2.65;2.28;;;;;;;;;;5079706;28;20204;-67
2023/07/04 01:05:44;;;;;;;2.30;2.10;;;;;;;;;;5079360;28;20564;-67
2023/07/04 01:08:14;;;;;;;7.55;2.45;;;;;;;;;;5079261;28;20204;-66
2023/07/04 01:10:44;;;;;;;3.25;2.50;;;;;;;;;;5078674;28;20218;-66
2023/07/04 01:13:26;;;;;;;3.05;2.25;;;;;;;;;;5078841;28;20200;-66
2023/07/04 01:15:53;;;;;;;3.65;2.38;;;;;;;;;;5079209;28;20472;-66
2023/07/04 01:18:23;;;;;;;2.40;2.20;;;;;;;;;;5079199;28;20208;-66
2023/07/04 01:20:52;;;;;;;4.07;2.60;;;;;;;;;;5078962;28;20291;-66
2023/07/04 01:23:24;;;;;;;3.30;2.53;;;;;;;;;;5078886;28;20211;-66
2023/07/04 01:25:54;;;;;;;2.30;2.10;;;;;;;;;;5079246;28;20208;-66
2023/07/04 01:28:24;;;;;;;2.60;1.92;;;;;;;;;;5079188;28;20599;-70
2023/07/04 01:30:52;;;;;;;4.28;2.40;;;;;;;;;;5078671;28;20212;-66
2023/07/04 01:33:20;;;;;;;3.63;2.10;;;;;;;;;;5078379;28;20200;-66
2023/07/04 01:35:48;;;;;;;2.50;2.30;;;;;;;;;;5078936;28;20214;-66
2023/07/04 01:38:16;;;;;;;3.97;2.28;;;;;;;;;;5078789;28;20258;-66
2023/07/04 01:40:43;;;;;;;3.75;2.40;;;;;;;;;;5078589;28;20205;-66
2023/07/04 01:43:11;;;;;;;2.75;2.35;;;;;;;;;;5078487;28;20247;-66
2023/07/04 01:45:40;;;;;;;2.50;2.05;;;;;;;;;;5078865;28;20254;-66
2023/07/04 01:48:09;;;;;;;3.25;2.33;;;;;;;;;;5078388;28;20211;-66
2023/07/04 01:50:36;;;;;;;4.07;2.28;;;;;;;;;;5078811;28;20665;-66
2023/07/04 01:53:04;;;;;;;2.92;2.20;;;;;;;;;;5078480;28;20211;-66
2023/07/04 01:55:32;;;;;;;3.15;2.20;;;;;;;;;;5070392;28;20216;-66
2023/07/04 01:58:00;;;;;;;2.97;2.40;;;;;;;;;;5077887;28;20204;-66
2023/07/04 02:00:27;;;;;;;2.20;2.00;;;;;;;;;;5078444;28;20211;-66
2023/07/04 02:02:56;;;;;;;2.45;2.25;;;;;;;;;;5077970;28;20234;-66
2023/07/04 02:05:24;;;;;;;2.42;2.22;;;;;;;;;;5077916;28;20204;-66
2023/07/04 02:07:51;;;;;;;3.47;2.38;;;;;;;;;;5078024;28;20502;-66
2023/07/04 02:10:19;;;;;;;2.30;2.10;;;;;;;;;;5078151;28;20222;-66
2023/07/04 02:12:47;;;;;;;2.20;2.00;;;;;;;;;;5078015;28;20212;-66
2023/07/04 02:15:15;;;;;;;3.22;2.28;;;;;;;;;;5077987;28;20223;-66
2023/07/04 02:17:42;;;;;;;2.85;2.00;;;;;;;;;;5077805;28;20213;-66
2023/07/04 02:20:12;;;;;;;2.92;2.20;;;;;;;;;;5078198;28;20205;-66
2023/07/04 02:22:42;;;;;;;2.60;2.13;;;;;;;;;;5077470;28;20236;-67
2023/07/04 02:25:10;;;;;;;2.08;1.88;;;;;;;;;;5078369;28;20514;-66
2023/07/04 02:27:37;;;;;;;3.00;2.00;;;;;;;;;;5078277;28;20212;-66
2023/07/04 02:30:05;;;;;;;2.97;2.30;;;;;;;;;;5077964;28;20481;-66
2023/07/04 02:32:33;;;;;;;2.63;1.90;;;;;;;;;;5078157;28;20200;-66
2023/07/04 02:35:00;;;;;;;2.00;1.90;;;;;;;;;;5077362;28;20608;-66
2023/07/04 02:37:30;;;;;;;2.45;1.98;;;;;;;;;;5077580;28;20208;-66
2023/07/04 02:39:58;;;;;;;2.15;1.95;;;;;;;;;;5077254;28;20284;-66
2023/07/04 02:42:25;;;;;;;2.15;1.95;;;;;;;;;;5077953;28;20235;-66
2023/07/04 02:44:53;;;;;;;2.95;1.80;;;;;;;;;;5077669;28;20577;-66
2023/07/04 02:47:25;;;;;;;2.33;2.13;;;;;;;;;;5076690;28;20601;-66
2023/07/04 02:49:54;;;;;;;2.17;1.98;;;;;;;;;;5076285;28;20200;-66
2023/07/04 02:52:22;;;;;;;2.50;2.10;;;;;;;;;;5076468;28;20609;-66
2023/07/04 02:54:51;;;;;;;2.40;2.20;;;;;;;;;;5076452;28;20204;-66
2023/07/04 02:57:19;;;;;;;4.03;2.08;;;;;;;;;;5076508;28;20239;-66
2023/07/04 02:59:47;;;;;;;3.15;2.15;;;;;;;;;;5076314;28;20219;-66
2023/07/04 03:02:14;;;;;;;4.00;2.20;;;;;;;;;;5076640;28;20326;-66
2023/07/04 03:04:42;;;;;;;1.80;1.70;;;;;;;;;;5077144;28;20683;-66
2023/07/04 03:07:10;;;;;;;2.78;2.03;;;;;;;;;;5077004;28;20203;-66
2023/07/04 03:09:37;;;;;;;1.95;1.80;;;;;;;;;;5077353;28;20208;-66
2023/07/04 03:12:07;;;;;;;2.40;1.80;;;;;;;;;;5077927;28;20354;-66
2023/07/04 03:14:35;;;;;;;2.15;1.92;;;;;;;;;;5077467;28;20482;-66
2023/07/04 03:17:02;;;;;;;2.40;1.92;;;;;;;;;;5077542;28;20222;-66
2023/07/04 03:19:30;;;;;;;4.00;2.35;;;;;;;;;;5077217;28;20282;-66
2023/07/04 03:21:58;;;;;;;2.17;1.80;;;;;;;;;;5076680;28;20318;-66
2023/07/04 03:24:26;;;;;;;2.42;2.22;;;;;;;;;;5076854;28;20208;-66
2023/07/04 03:26:53;;;;;;;4.68;2.00;;;;;;;;;;5076979;28;20204;-66
2023/07/04 03:29:22;;;;;;;2.60;1.77;;;;;;;;;;5077070;28;20290;-66
2023/07/04 03:31:50;;;;;;;2.45;1.80;;;;;;;;;;5077210;28;20204;-66
2023/07/04 03:34:18;;;;;;;2.10;1.90;;;;;;;;;;5077096;28;20621;-66
2023/07/04 03:36:45;;;;;;;2.63;1.90;;;;;;;;;;5080861;28;20215;-66
2023/07/04 03:39:13;;;;;;;3.72;1.95;;;;;;;;;;5080606;28;20646;-66
2023/07/04 03:41:40;;;;;;;2.15;1.90;;;;;;;;;;5081118;28;20204;-66
2023/07/04 03:44:08;;;;;;;1.98;1.80;;;;;;;;;;5080547;28;20219;-66
2023/07/04 03:46:37;;;;;;;2.28;2.08;;;;;;;;;;5081122;28;20290;-66
2023/07/04 03:49:05;;;;;;;3.80;1.90;;;;;;;;;;5080469;28;20204;-66
2023/07/04 03:51:33;;;;;;;2.63;2.42;;;;;;;;;;5080117;28;20715;-66
2023/07/04 03:54:00;;;;;;;2.88;2.67;;;;;;;;;;5080798;28;20208;-66
2023/07/04 03:56:28;;;;;;;3.75;2.30;;;;;;;;;;5080348;28;20204;-66
2023/07/04 03:58:56;;;;;;;2.30;2.10;;;;;;;;;;5080111;28;20201;-66
2023/07/04 04:01:24;;;;;;;2.67;2.00;;;;;;;;;;5080347;28;20266;-66
2023/07/04 04:03:54;;;;;;;2.15;1.92;;;;;;;;;;5079795;28;20274;-66
2023/07/04 04:06:22;;;;;;;2.33;1.92;;;;;;;;;;5080139;28;20204;-66
2023/07/04 04:08:49;;;;;;;2.40;2.20;;;;;;;;;;5080268;28;20583;-66
2023/07/04 04:11:17;;;;;;;2.45;1.95;;;;;;;;;;5079922;28;20214;-66
2023/07/04 04:13:44;;;;;;;2.30;2.03;;;;;;;;;;5080104;28;20675;-66
2023/07/04 04:16:12;;;;;;;2.58;2.20;;;;;;;;;;5079894;28;20470;-66
2023/07/04 04:18:39;;;;;;;2.30;2.10;;;;;;;;;;5079572;28;20484;-66
2023/07/04 04:21:09;;;;;;;2.40;1.83;;;;;;;;;;5079561;28;20246;-66
2023/07/04 04:23:36;;;;;;;2.40;2.20;;;;;;;;;;5079168;28;20361;-66
2023/07/04 04:26:04;;;;;;;2.72;2.00;;;;;;;;;;5079436;28;20630;-66
2023/07/04 04:28:32;;;;;;;3.45;2.13;;;;;;;;;;5078944;28;20212;-66
2023/07/04 04:30:59;;;;;;;2.95;1.88;;;;;;;;;;5079878;28;20239;-66
2023/07/04 04:33:26;;;;;;;3.72;2.20;;;;;;;;;;5078980;28;20583;-66
2023/07/04 04:35:54;;;;;;;2.28;2.05;;;;;;;;;;5079049;28;20204;-66
2023/07/04 04:38:22;;;;;;;2.90;2.22;;;;;;;;;;5078858;28;20247;-66
2023/07/04 04:40:50;;;;;;;2.75;2.20;;;;;;;;;;5079116;28;20212;-66
2023/07/04 04:43:17;;;;;;;2.20;2.00;;;;;;;;;;5078460;28;20246;-66
2023/07/04 04:45:45;;;;;;;2.17;1.98;;;;;;;;;;5078253;28;20611;-66
2023/07/04 04:48:28;;;;;;;2.30;2.03;;;;;;;;;;5078484;28;20308;-66
2023/07/04 04:50:59;;;;;;;2.35;2.10;;;;;;;;;;5078231;28;20619;-66
2023/07/04 04:53:29;;;;;;;2.60;2.40;;;;;;;;;;5078426;28;20659;-66
2023/07/04 04:55:56;;;;;;;3.35;2.20;;;;;;;;;;5078005;28;20291;-66
2023/07/04 04:58:23;;;;;;;2.85;2.40;;;;;;;;;;5078459;28;20244;-66
2023/07/04 05:00:51;;;;;;;2.75;2.25;;;;;;;;;;5077742;28;20204;-66
2023/07/04 05:03:18;;;;;;;3.05;2.28;;;;;;;;;;5077615;28;20228;-66
2023/07/04 05:05:46;;;;;;;2.40;2.20;;;;;;;;;;5077702;28;20303;-66
2023/07/04 05:08:13;;;;;;;4.53;2.50;;;;;;;;;;5077788;28;20295;-66
2023/07/04 05:10:42;;;;;;;6.43;2.45;;;;;;;;;;5076996;28;20204;-66
2023/07/04 05:13:09;;;;;;;3.03;2.70;;;;;;;;;;5076709;28;20310;-66
2023/07/04 05:15:37;;;;;;;3.10;2.53;;;;;;;;;;5076177;28;20299;-66
2023/07/04 05:18:04;;;;;;;2.83;2.60;;;;;;;;;;5076391;28;20303;-66
2023/07/04 05:20:32;;;;;;;3.17;2.70;;;;;;;;;;5076149;28;20295;-66
2023/07/04 05:23:02;;;;;;;3.38;2.60;;;;;;;;;;5075617;28;20335;-66
2023/07/04 05:25:29;;;;;;;3.45;2.85;;;;;;;;;;5076693;28;20204;-66
2023/07/04 05:27:58;;;;;;;3.00;2.80;;;;;;;;;;5076027;28;20204;-66
2023/07/04 05:30:26;;;;;;;3.00;2.70;;;;;;;;;;5077299;28;20308;-66
2023/07/04 05:32:54;;;;;;;3.35;2.95;;;;;;;;;;5077705;28;20203;-66
2023/07/04 05:35:21;;;;;;;2.75;2.50;;;;;;;;;;5076960;28;20574;-66
2023/07/04 05:37:48;;;;;;;3.50;3.17;;;;;;;;;;5075628;28;20208;-66
2023/07/04 05:40:16;;;;;;;3.67;3.35;;;;;;;;;;5076956;28;20218;-66
2023/07/04 05:42:43;;;;;;;3.20;2.90;;;;;;;;;;5076428;28;20928;-66
2023/07/04 05:45:12;;;;;;;4.78;3.53;;;;;;;;;;5075969;28;20287;-66
2023/07/04 05:47:40;;;;;;;4.03;3.63;;;;;;;;;;5075556;28;20204;-66
2023/07/04 05:50:08;;;;;;;3.72;3.42;;;;;;;;;;5075234;28;20288;-66
2023/07/04 05:52:35;;;;;;;4.30;3.90;;;;;;;;;;5076217;28;20646;-66
2023/07/04 05:55:02;;;;;;;4.80;3.90;;;;;;;;;;5076123;28;20291;-66
2023/07/04 05:57:33;;;;;;;4.38;3.70;;;;;;;;;;5075196;28;20204;-66
2023/07/04 06:00:00;;;;;;;4.50;3.83;;;;;;;;;;5076094;28;20204;-66
2023/07/04 06:02:29;;;;;;;5.22;3.65;;;;;;;;;;5076720;28;20204;-66
2023/07/04 06:04:57;;;;;;;5.90;4.00;;;;;;;;;;5076105;28;20487;-66
2023/07/04 06:07:24;;;;;;;5.05;3.63;;;;;;;;;;5076490;28;20302;-66
2023/07/04 06:09:52;;;;;;;6.03;4.15;;;;;;;;;;5076170;28;20204;-66
2023/07/04 06:12:19;;;;;;;4.47;4.07;;;;;;;;;;5076114;28;20293;-66
2023/07/04 06:14:46;;;;;;;4.80;3.88;;;;;;;;;;5075876;28;20301;-66
2023/07/04 06:17:14;;;;;;;6.18;5.00;;;;;;;;;;5076051;28;20216;-66
2023/07/04 06:19:43;;;;;;;7.93;5.20;;;;;;;;;;5075154;28;20295;-66
2023/07/04 06:22:10;;;;;;;5.38;4.57;;;;;;;;;;5075674;28;20231;-66
2023/07/04 06:24:38;;;;;;;5.63;4.47;;;;;;;;;;5075839;28;20275;-66
2023/07/04 06:27:07;;;;;;;7.25;4.40;;;;;;;;;;5075315;28;20295;-66
2023/07/04 06:29:35;;;;;;;6.72;4.50;;;;;;;;;;5076006;28;20204;-66
2023/07/04 06:32:02;;;;;;;7.13;4.40;;;;;;;;;;5075054;28;20255;-66
2023/07/04 06:34:30;;;;;;;5.10;4.10;;;;;;;;;;5075784;28;20223;-66
2023/07/04 06:36:58;;;;;;;5.63;4.43;;;;;;;;;;5075577;28;20203;-66
2023/07/04 06:39:26;;;;;;;6.22;4.38;;;;;;;;;;5075113;28;20326;-66
2023/07/04 06:41:53;;;;;;;5.88;4.57;;;;;;;;;;5074917;28;20208;-66
2023/07/04 06:44:21;;;;;;;5.18;4.30;;;;;;;;;;5074651;28;20315;-66
2023/07/04 06:46:48;;;;;;;5.65;4.57;;;;;;;;;;5075343;28;20266;-66
2023/07/04 06:49:16;;;;;;;5.90;4.40;;;;;;;;;;5075266;28;20673;-66
2023/07/04 06:51:43;;;;;;;5.97;4.70;;;;;;;;;;5074954;28;20295;-66
2023/07/04 06:54:12;;;;;;;5.97;4.15;;;;;;;;;;5075453;28;20240;-66
2023/07/04 06:56:39;;;;;;;5.45;4.57;;;;;;;;;;5074813;28;20235;-66
2023/07/04 06:59:07;;;;;;;5.70;4.13;;;;;;;;;;5075302;28;20210;-66
2023/07/04 07:01:34;;;;;;;5.38;4.30;;;;;;;;;;5075119;28;20299;-66
2023/07/04 07:04:02;;;;;;;7.40;4.35;;;;;;;;;;5074761;28;20315;-66
2023/07/04 07:06:29;;;;;;;4.85;4.20;;;;;;;;;;5074290;28;20208;-66
2023/07/04 07:08:57;;;;;;;5.47;4.00;;;;;;;;;;5074079;28;20211;-66
2023/07/04 07:11:26;;;;;;;4.65;3.90;;;;;;;;;;5074184;28;20207;-67
2023/07/04 07:13:53;;;;;;;5.68;3.88;;;;;;;;;;5074645;28;20196;-66
2023/07/04 07:16:21;;;;;;;7.45;4.50;;;;;;;;;;5075232;28;20257;-66
2023/07/04 07:18:49;;;;;;;6.00;4.32;;;;;;;;;;5075144;28;20204;-66
2023/07/04 07:21:20;;;;;;;6.60;4.05;;;;;;;;;;5075047;28;20304;-66
2023/07/04 07:23:48;;;;;;;5.70;4.70;;;;;;;;;;5074678;28;20224;-66
2023/07/04 07:26:17;;;;;;;6.93;4.30;;;;;;;;;;5073936;28;20231;-66
2023/07/04 07:28:46;;;;;;;4.97;4.30;;;;;;;;;;5074516;28;20248;-66
2023/07/04 07:31:15;;;;;;;7.75;4.68;;;;;;;;;;5074357;28;20210;-66
2023/07/04 07:33:45;;;;;;;6.15;4.68;;;;;;;;;;5074385;28;20279;-66
2023/07/04 07:36:15;;;;;;;5.28;4.50;;;;;;;;;;5074629;28;20238;-66
2023/07/04 07:38:42;;;;;;;6.30;4.30;;;;;;;;;;5074690;28;20699;-66
2023/07/04 07:41:10;;;;;;;5.47;4.38;;;;;;;;;;5075302;28;20316;-66
2023/07/04 07:43:38;;;;;;;5.78;4.15;;;;;;;;;;5075190;28;20236;-66
2023/07/04 07:46:09;;;;;;;5.57;4.43;;;;;;;;;;5074690;28;20204;-67
2023/07/04 07:48:36;;;;;;;7.03;4.70;;;;;;;;;;5075034;28;20208;-66
2023/07/04 07:51:05;;;;;;;5.05;4.43;;;;;;;;;;5075040;28;20196;-66
2023/07/04 07:53:32;;;;;;;5.50;3.97;;;;;;;;;;5075434;28;20227;-66
2023/07/04 07:56:00;;;;;;;5.90;4.75;;;;;;;;;;5075045;28;20219;-66
2023/07/04 07:58:27;;;;;;;5.82;4.32;;;;;;;;;;5075211;28;20210;-66
2023/07/04 08:00:55;;;;;;;4.82;4.32;;;;;;;;;;5074193;28;20204;-66
2023/07/04 08:03:24;;;;;;;4.78;4.28;;;;;;;;;;5075120;28;20255;-66
2023/07/04 08:05:51;;;;;;;5.13;4.03;;;;;;;;;;5074613;28;20205;-66
2023/07/04 08:08:19;;;;;;;5.20;4.38;;;;;;;;;;5074289;28;20287;-66
2023/07/04 08:10:46;;;;;;;6.57;4.70;;;;;;;;;;5074556;28;20307;-66
2023/07/04 08:13:13;;;;;;;5.50;4.15;;;;;;;;;;5074739;28;20214;-66
2023/07/04 08:15:41;;;;;;;6.05;4.57;;;;;;;;;;5074402;28;20595;-66
2023/07/04 08:18:09;;;;;;;7.05;4.55;;;;;;;;;;5073077;28;20622;-66
2023/07/04 08:20:38;;;;;;;6.28;4.25;;;;;;;;;;5074841;28;20239;-66
2023/07/04 08:23:06;;;;;;;5.20;4.45;;;;;;;;;;5078404;28;20311;-66
2023/07/04 08:25:38;;;;;;;5.93;4.35;;;;;;;;;;5078550;28;20211;-66
2023/07/04 08:28:05;;;;;;;6.78;4.85;;;;;;;;;;5077841;28;20631;-66
2023/07/04 08:30:33;;;;;;;5.38;4.53;;;;;;;;;;5076888;28;20207;-66
2023/07/04 08:33:00;;;;;;;6.32;5.13;;;;;;;;;;5077474;28;20200;-66
2023/07/04 08:35:27;;;;;;;6.15;4.90;;;;;;;;;;5077607;28;20230;-67
2023/07/04 08:37:56;;;;;;;6.50;4.70;;;;;;;;;;5077309;28;20736;-67
2023/07/04 08:40:24;;;;;;;6.03;4.35;;;;;;;;;;5077763;28;20295;-66
2023/07/04 08:42:51;;;;;;;4.57;4.15;;;;;;;;;;5077753;28;20204;-66
2023/07/04 08:45:24;;;;;;;6.00;4.50;;;;;;;;;;5077354;28;20318;-66
2023/07/04 08:47:52;;;;;;;7.55;4.97;;;;;;;;;;5078042;28;20212;-66
2023/07/04 08:50:23;;;;;;;5.28;4.60;;;;;;;;;;5077463;28;20303;-66
2023/07/04 08:52:54;;;;;;;5.50;4.95;;;;;;;;;;5078009;28;20200;-66
2023/07/04 08:55:25;;;;;;;4.88;4.38;;;;;;;;;;5077624;28;20567;-66
2023/07/04 08:57:54;;;;;;;5.53;4.60;;;;;;;;;;5077322;28;20269;-66
2023/07/04 09:00:28;;;;;;;5.25;4.75;;;;;;;;;;5077332;28;20572;-66
2023/07/04 09:03:13;;;;;;;6.78;5.25;;;;;;;;;;5076880;28;20208;-67
2023/07/04 09:05:47;;;;;;;5.80;4.43;;;;;;;;;;5076356;28;20232;-67
2023/07/04 09:08:19;;;;;;;5.28;4.72;;;;;;;;;;5076812;28;20674;-67
2023/07/04 09:10:51;;;;;;;5.60;4.95;;;;;;;;;;5076967;28;20522;-67
2023/07/04 09:13:21;;;;;;;5.63;4.97;;;;;;;;;;5076237;28;20201;-67
2023/07/04 09:15:49;;;;;;;5.68;4.78;;;;;;;;;;5076359;28;20200;-67
2023/07/04 09:18:21;;;;;;;5.50;4.82;;;;;;;;;;5076510;28;20664;-67
2023/07/04 09:20:51;;;;;;;5.25;4.75;;;;;;;;;;5076769;28;20341;-67
2023/07/04 09:23:22;;;;;;;6.20;4.60;;;;;;;;;;5075464;28;20313;-67
2023/07/04 09:25:51;;;;;;;6.35;4.85;;;;;;;;;;5076432;28;20228;-67
2023/07/04 09:28:18;;;;;;;6.75;5.18;;;;;;;;;;5077267;28;20586;-67
2023/07/04 09:30:46;;;;;;;5.63;5.05;;;;;;;;;;5076196;28;20655;-67
2023/07/04 09:33:14;;;;;;;6.25;5.10;;;;;;;;;;5074671;28;20235;-67
2023/07/04 09:35:44;;;;;;;6.22;5.07;;;;;;;;;;5075327;28;20196;-67
2023/07/04 09:38:11;;;;;;;6.60;5.20;;;;;;;;;;5070612;28;20240;-67
2023/07/04 09:40:43;;;;;;;5.60;5.10;;;;;;;;;;5054754;28;20773;-67
2023/07/04 09:43:13;;;;;;;7.63;4.93;;;;;;;;;;5054899;28;20208;-67
2023/07/04 09:45:41;;;;;;;5.97;5.47;;;;;;;;;;5049610;28;20571;-67
2023/07/04 09:48:10;;;;;;;6.15;5.55;;;;;;;;;;5056013;28;20568;-67
2023/07/04 09:50:38;;;;;;;7.05;6.00;;;;;;;;;;5055445;28;20561;-67
2023/07/04 09:53:09;;;;;;;7.15;6.45;;;;;;;;;;5054878;28;20207;-67
2023/07/04 09:55:37;;;;;;;6.82;6.13;;;;;;;;;;5054801;28;20201;-67
2023/07/04 09:58:17;;;;;;;7.05;6.35;;;;;;;;;;5054768;28;20209;-67
2023/07/04 10:00:45;;;;;;;6.57;5.85;;;;;;;;;;5055741;28;20288;-67
2023/07/04 10:03:12;;;;;;;7.22;6.53;;;;;;;;;;5054532;28;20209;-67
2023/07/04 10:05:40;;;;;;;7.93;6.10;;;;;;;;;;5053927;28;20225;-67
2023/07/04 10:08:08;;;;;;;7.13;6.43;;;;;;;;;;5054893;28;20795;-67
2023/07/04 10:10:37;;;;;;;7.15;6.47;;;;;;;;;;5054499;28;20502;-67
2023/07/04 10:13:07;;;;;;;7.95;6.53;;;;;;;;;;5054047;28;20205;-67
2023/07/04 10:15:40;;;;;;;7.00;6.25;;;;;;;;;;5054632;28;20197;-67
2023/07/04 10:18:08;;;;;;;6.72;6.03;;;;;;;;;;5054897;28;20205;-67
2023/07/04 10:20:40;;;;;;;7.05;5.93;;;;;;;;;;5053234;28;20236;-67
2023/07/04 10:23:08;;;;;;;6.63;6.03;;;;;;;;;;5054035;28;20742;-67
2023/07/04 10:25:36;;;;;;;9.25;6.57;;;;;;;;;;5054359;28;20323;-67
2023/07/04 10:28:12;;;;;;;9.38;7.20;;;;;;;;;;5054696;28;20496;-67
2023/07/04 10:30:42;;;;;;;7.80;7.10;;;;;;;;;;5054337;28;20223;-67
2023/07/04 10:33:13;;;;;;;7.45;6.65;;;;;;;;;;5052950;28;20211;-67
2023/07/04 10:35:42;;;;;;;7.93;6.70;;;;;;;;;;5053332;28;20207;-66
2023/07/04 10:38:15;;;;;;;8.05;7.07;;;;;;;;;;5053525;28;20229;-67
2023/07/04 10:40:43;;;;;;;9.18;8.02;;;;;;;;;;5053754;28;20228;-67
2023/07/04 10:43:13;;;;;;;8.93;7.68;;;;;;;;;;5051964;28;20201;-66
2023/07/04 10:45:42;;;;;;;8.18;7.32;;;;;;;;;;5052943;28;20229;-66
2023/07/04 10:48:14;;;;;;;9.07;8.18;;;;;;;;;;5054614;28;20597;-66
2023/07/04 10:50:45;;;;;;;9.15;8.20;;;;;;;;;;5054046;28;20209;-66
2023/07/04 10:53:14;;;;;;;9.40;8.40;;;;;;;;;;5054487;28;20236;-67
2023/07/04 10:55:44;;;;;;;9.88;8.88;;;;;;;;;;5053622;28;20306;-67
2023/07/04 10:58:13;;;;;;;9.77;8.85;;;;;;;;;;5053712;28;20304;-67
2023/07/04 11:00:43;;;;;;;9.27;8.38;;;;;;;;;;5053630;28;20205;-67
2023/07/04 11:03:15;;;;;;;9.40;8.48;;;;;;;;;;5053496;28;20223;-67
2023/07/04 11:05:44;;;;;;;11.05;9.95;;;;;;;;;;5054004;28;20319;-67
2023/07/04 11:08:15;;;;;;;10.52;9.43;;;;;;;;;;5054647;28;20205;-67
2023/07/04 11:10:44;;;;;;;10.23;9.23;;;;;;;;;;5054333;28;20732;-67
2023/07/04 11:13:15;;;;;;;10.48;9.40;;;;;;;;;;5054370;28;20571;-67
2023/07/04 11:15:44;;;;;;;9.65;8.75;;;;;;;;;;5054148;28;20214;-67
2023/07/04 11:18:18;;;;;;;10.75;9.70;;;;;;;;;;5053742;28;20287;-67
2023/07/04 11:20:55;;;;;;;10.48;9.43;;;;;;;;;;5053549;28;20274;-67
2023/07/04 11:23:24;;;;;;;11.90;9.65;;;;;;;;;;5053868;28;20236;-67
2023/07/04 11:26:00;;;;;;;10.70;9.48;;;;;;;;;;5053848;28;20224;-67
2023/07/04 11:28:42;;;;;;;10.45;9.43;;;;;;;;;;5054533;28;20208;-67
2023/07/04 11:31:15;;;;;;;10.27;9.32;;;;;;;;;;5053281;28;20224;-67
2023/07/04 11:33:44;;;;;;;10.32;8.93;;;;;;;;;;5053038;28;20585;-67
2023/07/04 11:36:18;;;;;;;9.85;8.95;;;;;;;;;;5053316;28;20232;-67
2023/07/04 11:38:51;;;;;;;10.02;9.02;;;;;;;;;;5053575;28;20699;-67
2023/07/04 11:41:19;;;;;;;11.77;10.68;;;;;;;;;;5053629;28;20708;-67
2023/07/04 11:43:47;;;;;;;12.07;10.93;;;;;;;;;;5054019;28;20328;-67
2023/07/04 11:46:28;;;;;;;11.75;10.65;;;;;;;;;;5053768;28;20268;-67
2023/07/04 11:48:56;;;;;;;11.77;10.57;;;;;;;;;;5053953;28;20308;-67
2023/07/04 11:51:24;;;;;;;11.50;10.40;;;;;;;;;;5053681;28;20211;-67
2023/07/04 11:53:55;;;;;;;12.32;11.18;;;;;;;;;;5053516;28;20324;-66
2023/07/04 11:56:35;;;;;;;12.35;11.13;;;;;;;;;;5055784;28;20265;-67
2023/07/04 11:59:24;;;;;;;11.63;10.52;;;;;;;;;;5057461;28;20240;-67
2023/07/04 12:02:09;;;;;;;12.52;11.25;;;;;;;;;;5057542;28;20212;-68
2023/07/04 12:04:47;;;;;;;12.43;11.25;;;;;;;;;;5057445;28;20235;-67
2023/07/04 12:07:18;;;;;;;11.90;10.75;;;;;;;;;;5057194;28;20795;-67
2023/07/04 12:09:49;;;;;;;12.13;10.93;;;;;;;;;;5056734;28;20209;-67
2023/07/04 12:12:21;;;;;;;12.98;11.70;;;;;;;;;;5056755;28;20208;-67
2023/07/04 12:14:49;;;;;;;12.23;11.07;;;;;;;;;;5056714;28;20561;-67
2023/07/04 12:17:21;;;;;;;12.63;11.32;;;;;;;;;;5057039;28;20681;-67
2023/07/04 12:19:48;;;;;;;12.75;11.55;;;;;;;;;;5056004;28;20205;-67
2023/07/04 12:22:17;;;;;;;12.38;11.23;;;;;;;;;;5057082;28;20300;-67
2023/07/04 12:24:45;;;;;;;12.25;11.07;;;;;;;;;;5056569;28;20613;-67
2023/07/04 12:27:12;;;;;;;12.73;11.52;;;;;;;;;;5056230;28;20296;-67
2023/07/04 12:29:49;;;;;;;12.68;11.50;;;;;;;;;;5056032;28;20205;-67
2023/07/04 12:32:18;;;;;;;12.45;11.35;;;;;;;;;;5056569;28;20200;-67
2023/07/04 12:34:47;;;;;;;14.00;12.60;;;;;;;;;;5055836;28;20237;-67
2023/07/04 12:37:19;;;;;;;12.90;11.65;;;;;;;;;;5055699;28;20219;-67
2023/07/04 12:39:48;;;;;;;12.98;11.68;;;;;;;;;;5055567;28;20240;-67
2023/07/04 12:42:21;;;;;;;13.32;12.02;;;;;;;;;;5056217;28;20205;-67
2023/07/04 12:44:48;;;;;;;12.98;11.68;;;;;;;;;;5056315;28;20212;-67
2023/07/04 12:47:20;;;;;;;12.90;11.65;;;;;;;;;;5056383;28;20259;-67
2023/07/04 12:49:49;;;;;;;14.18;12.82;;;;;;;;;;5056081;28;20211;-67
2023/07/04 12:52:18;;;;;;;14.00;12.68;;;;;;;;;;5055450;28;20243;-67
2023/07/04 12:54:45;;;;;;;15.68;14.07;;;;;;;;;;5056675;28;20201;-67
2023/07/04 12:57:14;;;;;;;14.60;13.20;;;;;;;;;;5056499;28;20244;-67
2023/07/04 12:59:42;;;;;;;15.68;14.20;;;;;;;;;;5054661;28;20515;-67
2023/07/04 13:02:14;;;;;;;15.98;14.45;;;;;;;;;;5055085;28;20287;-67
2023/07/04 13:04:42;;;;;;;15.60;14.05;;;;;;;;;;5055541;28;20299;-67
2023/07/04 13:07:11;;;;;;;16.30;14.80;;;;;;;;;;5055470;28;20284;-67
2023/07/04 13:09:42;;;;;;;16.05;14.55;;;;;;;;;;5055263;28;20205;-67
2023/07/04 13:12:10;;;;;;;16.05;14.55;;;;;;;;;;5055913;28;20203;-67
2023/07/04 13:14:38;;;;;;;15.85;14.25;;;;;;;;;;5055917;28;20304;-67
2023/07/04 13:17:10;;;;;;;16.27;14.63;;;;;;;;;;5055623;28;20201;-67
2023/07/04 13:19:40;;;;;;;15.05;13.55;;;;;;;;;;5054255;28;20201;-68
2023/07/04 13:22:16;;;;;;;15.38;13.88;;;;;;;;;;5055804;28;20636;-67
2023/07/04 13:24:44;;;;;;;15.93;14.23;;;;;;;;;;5056015;28;20205;-67
2023/07/04 13:27:13;;;;;;;16.75;15.25;;;;;;;;;;5055251;28;20204;-67
2023/07/04 13:29:49;;;;;;;16.98;15.27;;;;;;;;;;5055043;28;20300;-67
2023/07/04 13:32:27;;;;;;;17.52;15.73;;;;;;;;;;5055885;28;20204;-67
2023/07/04 13:34:54;;;;;;;17.48;15.82;;;;;;;;;;5055042;28;20204;-67
2023/07/04 13:37:23;;;;;;;18.20;16.40;;;;;;;;;;5055003;28;20597;-67
2023/07/04 13:39:51;;;;;;;18.38;16.58;;;;;;;;;;5056140;28;20246;-67
2023/07/04 13:42:18;;;;;;;18.88;17.15;;;;;;;;;;5054662;28;20761;-67
2023/07/04 13:44:47;;;;;;;19.15;17.25;;;;;;;;;;5054988;28;20210;-67
2023/07/04 13:47:14;;;;;;;17.92;16.27;;;;;;;;;;5054964;28;20315;-67
2023/07/04 13:49:43;;;;;;;17.70;16.00;;;;;;;;;;5053944;28;20209;-67
2023/07/04 13:52:10;;;;;;;17.45;15.75;;;;;;;;;;5054357;28;20631;-67
2023/07/04 13:54:39;;;;;;;17.50;15.80;;;;;;;;;;5054640;28;20205;-67
2023/07/04 13:57:07;;;;;;;16.55;14.98;;;;;;;;;;5054790;28;20299;-67
2023/07/04 13:59:34;;;;;;;17.05;15.45;;;;;;;;;;5054918;28;20205;-67
2023/07/04 14:02:02;;;;;;;17.52;15.82;;;;;;;;;;5054285;28;20308;-67
2023/07/04 14:04:29;;;;;;;18.60;16.80;;;;;;;;;;5054316;28;20245;-67
2023/07/04 14:06:56;;;;;;;18.00;16.27;;;;;;;;;;5055438;28;20320;-67
2023/07/04 14:09:24;;;;;;;19.88;17.88;;;;;;;;;;5053588;28;20209;-67
2023/07/04 14:11:57;;;;;;;18.80;17.00;;;;;;;;;;5054790;28;20208;-67
2023/07/04 14:14:25;;;;;;;18.38;16.55;;;;;;;;;;5053831;28;20201;-67
2023/07/04 14:16:53;;;;;;;18.42;16.63;;;;;;;;;;5054651;28;20298;-67
2023/07/04 14:19:20;;;;;;;20.00;18.00;;;;;;;;;;5052709;28;20295;-67
2023/07/04 14:21:48;;;;;;;19.77;17.75;;;;;;;;;;5054189;28;20288;-67
2023/07/04 14:24:15;;;;;;;19.75;17.75;;;;;;;;;;5053540;28;20292;-67
2023/07/04 14:26:43;;;;;;;20.10;17.92;;;;;;;;;;5054121;28;20272;-67
2023/07/04 14:29:11;;;;;;;19.45;17.48;;;;;;;;;;5053930;28;20291;-67
2023/07/04 14:31:39;;;;;;;19.52;17.52;;;;;;;;;;5047397;28;20304;-67
2023/07/04 14:34:06;;;;;;;18.52;16.70;;;;;;;;;;5054084;28;20208;-67
2023/07/04 14:36:35;;;;;;;18.30;16.60;;;;;;;;;;5054370;28;20287;-67
2023/07/04 14:39:02;;;;;;;18.75;16.90;;;;;;;;;;5054189;28;20259;-67
2023/07/04 14:41:30;;;;;;;18.40;16.60;;;;;;;;;;5054219;28;20503;-67
2023/07/04 14:43:58;;;;;;;18.55;16.75;;;;;;;;;;5054286;28;20201;-67
2023/07/04 14:46:26;;;;;;;19.23;17.40;;;;;;;;;;5053714;28;20264;-67